createdAt,value
2023-09-27T00:01:13.077Z,102140.41
2023-09-27T00:03:43.895Z,102133.38
2023-09-27T00:06:13.491Z,102137.13
2023-09-27T00:08:42.743Z,102140.84
2023-09-27T00:11:12.261Z,102154.38
2023-09-27T00:13:41.550Z,102154.56
2023-09-27T00:16:10.947Z,102159.16
2023-09-27T00:18:40.219Z,102170.91
2023-09-27T00:21:09.420Z,102168.38
2023-09-27T00:23:38.797Z,102165.78
2023-09-27T00:26:08.170Z,102171.25
2023-09-27T00:28:37.535Z,102168.69
2023-09-27T00:31:06.726Z,102161.69
2023-09-27T00:33:36.847Z,102166.28
2023-09-27T00:36:06.171Z,102164.66
2023-09-27T00:38:35.607Z,102160.34
2023-09-27T00:41:07.389Z,102157.84
2023-09-27T00:43:37.476Z,102144.53
2023-09-27T00:46:09.337Z,102144.63
2023-09-27T00:48:39.852Z,102129.59
2023-09-27T00:51:09.746Z,102135.00
2023-09-27T00:53:42.009Z,102131.53
2023-09-27T00:56:13.246Z,102137.03
2023-09-27T00:58:42.699Z,102130.81
2023-09-27T01:01:17.230Z,102131.78
2023-09-27T01:03:47.892Z,102130.97
2023-09-27T01:06:17.736Z,102129.38
2023-09-27T01:08:47.130Z,102133.94
2023-09-27T01:11:16.761Z,102127.75
2023-09-27T01:13:47.155Z,102136.75
2023-09-27T01:16:16.508Z,102128.84
2023-09-27T01:18:45.791Z,102126.28
2023-09-27T01:21:20.282Z,102132.59
2023-09-27T01:23:51.904Z,102131.81
2023-09-27T01:26:25.100Z,102122.94
2023-09-27T01:28:57.463Z,102118.56
2023-09-27T01:31:26.800Z,102118.63
2023-09-27T01:33:56.754Z,102110.72
2023-09-27T01:36:26.127Z,102120.59
2023-09-27T01:38:55.313Z,102126.06
2023-09-27T01:41:24.547Z,102129.69
2023-09-27T01:43:55.057Z,102129.75
2023-09-27T01:46:25.342Z,102126.25
2023-09-27T01:48:57.392Z,102128.13
2023-09-27T01:51:26.965Z,102110.31
2023-09-27T01:53:56.248Z,102101.44
2023-09-27T01:56:25.500Z,102104.16
2023-09-27T01:58:55.142Z,102112.31
2023-09-27T02:01:25.117Z,102108.78
2023-09-27T02:03:54.825Z,102118.66
2023-09-27T02:06:25.120Z,102129.44
2023-09-27T02:08:54.771Z,102130.50
2023-09-27T02:11:27.001Z,102137.72
2023-09-27T02:13:57.800Z,102148.50
2023-09-27T02:16:27.398Z,102142.31
2023-09-27T02:19:00.426Z,102141.44
2023-09-27T02:21:29.655Z,102137.06
2023-09-27T02:23:58.858Z,102132.63
2023-09-27T02:26:28.220Z,102140.75
2023-09-27T02:28:57.558Z,102147.94
2023-09-27T02:31:26.986Z,102149.78
2023-09-27T02:33:56.310Z,102154.25
2023-09-27T02:36:25.566Z,102157.88
2023-09-27T02:38:54.957Z,102153.53
2023-09-27T02:41:24.720Z,102149.09
2023-09-27T02:43:54.041Z,102141.06
2023-09-27T02:46:23.449Z,102135.78
2023-09-27T02:48:53.958Z,102138.50
2023-09-27T02:51:23.779Z,102136.81
2023-09-27T02:53:53.201Z,102136.00
2023-09-27T02:56:22.662Z,102144.09
2023-09-27T02:58:52.125Z,102144.13
2023-09-27T03:01:22.693Z,102152.19
2023-09-27T03:03:52.096Z,102155.81
2023-09-27T03:06:21.549Z,102149.63
2023-09-27T03:08:52.211Z,102160.38
2023-09-27T03:11:21.662Z,102163.09
2023-09-27T03:13:50.937Z,102164.03
2023-09-27T03:16:21.353Z,102157.84
2023-09-27T03:18:51.010Z,102150.75
2023-09-27T03:21:20.315Z,102156.16
2023-09-27T03:23:49.769Z,102152.66
2023-09-27T03:26:19.451Z,102154.47
2023-09-27T03:28:48.738Z,102145.63
2023-09-27T03:31:18.649Z,102140.34
2023-09-27T03:33:48.258Z,102135.91
2023-09-27T03:36:17.479Z,102124.41
2023-09-27T03:38:47.520Z,102134.25
2023-09-27T03:41:17.338Z,102135.22
2023-09-27T03:43:48.210Z,102144.22
2023-09-27T03:46:17.434Z,102155.91
2023-09-27T03:48:47.932Z,102142.56
2023-09-27T03:51:26.226Z,102147.09
2023-09-27T03:53:56.079Z,102156.88
2023-09-27T03:56:25.449Z,102164.97
2023-09-27T03:58:55.094Z,102175.72
2023-09-27T04:01:24.432Z,102176.63
2023-09-27T04:03:53.836Z,102169.47
2023-09-27T04:06:23.237Z,102166.81
2023-09-27T04:08:52.989Z,102165.09
2023-09-27T04:11:22.556Z,102174.06
2023-09-27T04:13:51.894Z,102177.66
2023-09-27T04:16:21.131Z,102177.66
2023-09-27T04:18:50.508Z,102172.31
2023-09-27T04:21:19.733Z,102172.34
2023-09-27T04:24:00.479Z,102174.22
2023-09-27T04:26:29.955Z,102165.31
2023-09-27T04:28:59.899Z,102173.34
2023-09-27T04:31:29.317Z,102177.88
2023-09-27T04:33:58.582Z,102171.63
2023-09-27T04:36:27.803Z,102182.34
2023-09-27T04:38:57.085Z,102174.31
2023-09-27T04:41:26.383Z,102173.44
2023-09-27T04:43:55.641Z,102177.03
2023-09-27T04:46:24.870Z,102177.09
2023-09-27T04:48:54.393Z,102177.06
2023-09-27T04:51:23.843Z,102181.66
2023-09-27T04:53:53.136Z,102187.03
2023-09-27T04:56:22.506Z,102177.25
2023-09-27T04:58:51.753Z,102162.09
2023-09-27T05:01:21.342Z,102160.31
2023-09-27T05:03:51.129Z,102150.53
2023-09-27T05:06:20.375Z,102164.81
2023-09-27T05:08:51.489Z,102158.56
2023-09-27T05:11:21.028Z,102154.09
2023-09-27T05:13:50.333Z,102153.25
2023-09-27T05:16:21.326Z,102155.03
2023-09-27T05:18:50.646Z,102150.59
2023-09-27T05:21:20.054Z,102149.69
2023-09-27T05:23:49.285Z,102153.28
2023-09-27T05:26:19.078Z,102156.88
2023-09-27T05:28:48.326Z,102170.25
2023-09-27T05:31:17.591Z,102169.31
2023-09-27T05:33:46.879Z,102156.88
2023-09-27T05:36:16.142Z,102162.22
2023-09-27T05:38:45.847Z,102160.50
2023-09-27T05:41:15.356Z,102146.25
2023-09-27T05:43:44.624Z,102139.09
2023-09-27T05:46:13.812Z,102134.63
2023-09-27T05:48:42.997Z,102140.78
2023-09-27T05:51:12.311Z,102137.22
2023-09-27T05:53:41.518Z,102131.78
2023-09-27T05:56:10.907Z,102146.00
2023-09-27T05:58:40.241Z,102157.59
2023-09-27T06:01:09.560Z,102164.59
2023-09-27T06:03:40.149Z,102158.25
2023-09-27T06:06:09.475Z,102154.59
2023-09-27T06:08:38.800Z,102150.06
2023-09-27T06:11:11.175Z,102143.72
2023-09-27T06:13:40.462Z,102145.44
2023-09-27T06:16:18.570Z,102144.41
2023-09-27T06:18:48.327Z,102135.34
2023-09-27T06:21:17.552Z,102137.88
2023-09-27T06:23:46.818Z,102137.78
2023-09-27T06:26:16.340Z,102147.50
2023-09-27T06:28:45.589Z,102145.59
2023-09-27T06:31:15.315Z,102143.69
2023-09-27T06:33:47.520Z,102142.66
2023-09-27T06:36:17.500Z,102149.69
2023-09-27T06:38:47.612Z,102149.63
2023-09-27T06:41:17.228Z,102148.59
2023-09-27T06:43:46.954Z,102150.25
2023-09-27T06:46:18.841Z,102150.06
2023-09-27T06:48:48.394Z,102151.66
2023-09-27T06:51:17.635Z,102159.56
2023-09-27T06:53:46.961Z,102153.19
2023-09-27T06:56:16.250Z,102152.09
2023-09-27T06:58:45.503Z,102144.81
2023-09-27T07:01:14.844Z,102149.16
2023-09-27T07:03:44.374Z,102149.91
2023-09-27T07:06:13.736Z,102147.06
2023-09-27T07:08:44.798Z,102154.97
2023-09-27T07:11:14.701Z,102149.53
2023-09-27T07:13:44.111Z,102156.53
2023-09-27T07:16:34.409Z,102165.34
2023-09-27T07:19:06.985Z,102155.41
2023-09-27T07:21:36.238Z,102156.16
2023-09-27T07:24:05.687Z,102166.75
2023-09-27T07:26:34.956Z,102160.34
2023-09-27T07:29:04.192Z,102161.06
2023-09-27T07:31:33.569Z,102161.78
2023-09-27T07:34:02.989Z,102170.53
2023-09-27T07:36:32.213Z,102167.59
2023-09-27T07:39:04.979Z,102161.97
2023-09-27T07:41:37.129Z,102153.59
2023-09-27T07:44:08.634Z,102173.03
2023-09-27T07:46:38.257Z,102179.00
2023-09-27T07:49:07.719Z,102183.19
2023-09-27T07:51:36.974Z,102183.78
2023-09-27T07:54:09.120Z,102190.72
2023-09-27T07:56:41.507Z,102190.50
2023-09-27T07:59:11.069Z,102195.59
2023-09-27T08:01:40.419Z,102190.03
2023-09-27T08:04:13.738Z,102196.09
2023-09-27T08:06:43.146Z,102197.69
2023-09-27T08:09:23.998Z,102194.84
2023-09-27T08:12:03.200Z,102183.94
2023-09-27T08:14:32.542Z,102202.50
2023-09-27T08:17:04.339Z,102200.53
2023-09-27T08:19:34.020Z,102202.88
2023-09-27T08:22:03.226Z,102198.03
2023-09-27T08:24:32.433Z,102197.72
2023-09-27T08:27:03.078Z,102206.41
2023-09-27T08:29:32.361Z,102207.97
2023-09-27T08:32:01.576Z,102203.13
2023-09-27T08:34:30.800Z,102209.06
2023-09-27T08:37:00.062Z,102209.53
2023-09-27T08:39:29.563Z,102212.50
2023-09-27T08:42:00.605Z,102206.63
2023-09-27T08:44:30.035Z,102198.94
2023-09-27T08:47:00.004Z,102200.19
2023-09-27T08:49:29.332Z,102201.44
2023-09-27T08:51:59.178Z,102213.47
2023-09-27T08:54:28.420Z,102196.03
2023-09-27T08:56:59.762Z,102201.09
2023-09-27T08:59:29.299Z,102193.50
2023-09-27T09:02:00.144Z,102190.38
2023-09-27T09:04:29.603Z,102184.66
2023-09-27T09:06:58.961Z,102186.09
2023-09-27T09:09:28.259Z,102184.03
2023-09-27T09:12:02.282Z,102179.00
2023-09-27T09:14:51.268Z,102163.47
2023-09-27T09:17:21.011Z,102170.53
2023-09-27T09:20:38.848Z,102162.25
2023-09-27T09:23:14.109Z,102149.47
2023-09-27T09:25:46.248Z,102140.22
2023-09-27T09:28:15.451Z,102140.00
2023-09-27T09:30:47.321Z,102138.91
2023-09-27T09:33:23.390Z,102136.78
2023-09-27T09:35:54.559Z,102140.78
2023-09-27T09:38:32.475Z,102134.44
2023-09-27T09:41:05.197Z,102133.28
2023-09-27T09:43:40.308Z,102138.38
2023-09-27T09:46:12.050Z,102132.59
2023-09-27T09:48:42.631Z,102126.09
2023-09-27T09:51:12.877Z,102130.41
2023-09-27T09:53:44.226Z,102121.25
2023-09-27T09:59:01.078Z,102118.34
2023-09-27T10:01:38.711Z,102123.38
2023-09-27T10:04:09.781Z,102129.34
2023-09-27T10:06:48.297Z,102123.63
2023-09-27T10:09:20.197Z,102123.16
2023-09-27T10:11:51.285Z,102118.53
2023-09-27T10:14:21.409Z,102119.34
2023-09-27T10:16:51.673Z,102121.81
2023-09-27T10:19:31.088Z,102125.13
2023-09-27T10:22:09.555Z,102110.59
2023-09-27T10:24:44.340Z,102114.88
2023-09-27T10:27:13.677Z,102117.28
2023-09-27T10:30:00.265Z,102120.50
2023-09-27T10:32:29.672Z,102124.25
2023-09-27T10:35:18.762Z,102130.66
2023-09-27T10:38:10.004Z,102128.16
2023-09-27T10:40:47.349Z,102120.19
2023-09-27T10:43:34.994Z,102114.25
2023-09-27T10:46:05.781Z,102092.09
2023-09-27T10:48:37.366Z,102085.66
2023-09-27T10:51:06.658Z,102076.81
2023-09-27T10:53:36.000Z,102061.00
2023-09-27T10:56:05.893Z,102063.50
2023-09-27T10:58:43.723Z,102061.44
2023-09-27T11:01:13.361Z,102046.84
2023-09-27T11:03:42.808Z,102048.84
2023-09-27T11:06:17.232Z,102051.84
2023-09-27T11:08:46.615Z,102045.06
2023-09-27T11:11:16.041Z,102030.91
2023-09-27T11:13:46.521Z,102024.81
2023-09-27T11:16:19.599Z,102011.69
2023-09-27T11:18:50.784Z,102015.28
2023-09-27T11:21:20.598Z,102010.38
2023-09-27T11:23:53.699Z,102010.88
2023-09-27T11:26:25.524Z,102015.84
2023-09-27T11:29:03.458Z,102012.94
2023-09-27T11:31:41.879Z,102011.19
2023-09-27T11:34:19.118Z,102003.59
2023-09-27T11:36:50.764Z,102001.66
2023-09-27T11:39:22.430Z,101995.25
2023-09-27T11:41:51.802Z,101996.91
2023-09-27T11:44:25.996Z,101992.31
2023-09-27T11:47:11.126Z,101983.69
2023-09-27T11:49:40.337Z,101981.53
2023-09-27T11:52:11.961Z,101979.09
2023-09-27T11:54:43.544Z,101980.94
2023-09-27T11:57:12.707Z,101969.69
2023-09-27T11:59:41.894Z,101969.47
2023-09-27T12:02:24.289Z,101951.53
2023-09-27T12:04:54.738Z,101956.31
2023-09-27T12:07:24.094Z,101949.22
2023-09-27T12:09:53.366Z,101946.84
2023-09-27T12:12:22.546Z,101949.03
2023-09-27T12:14:53.310Z,101942.00
2023-09-27T12:17:23.294Z,101938.19
2023-09-27T12:19:52.536Z,101935.22
2023-09-27T12:22:22.057Z,101928.91
2023-09-27T12:24:51.402Z,101926.34
2023-09-27T12:27:20.964Z,101921.91
2023-09-27T12:29:50.194Z,101918.44
2023-09-27T12:32:19.425Z,101913.75
2023-09-27T12:34:48.599Z,101908.56
2023-09-27T12:37:17.739Z,101905.75
2023-09-27T12:39:46.931Z,101897.59
2023-09-27T12:42:16.549Z,101895.75
2023-09-27T12:44:45.813Z,101898.56
2023-09-27T12:47:16.259Z,101892.38
2023-09-27T12:49:45.463Z,101896.94
2023-09-27T12:52:16.369Z,101884.44
2023-09-27T12:54:46.803Z,101890.72
2023-09-27T12:57:16.115Z,101881.53
2023-09-27T12:59:45.400Z,101884.22
2023-09-27T13:02:14.781Z,101885.00
2023-09-27T13:04:45.722Z,101880.44
2023-09-27T13:07:15.776Z,101872.22
2023-09-27T13:09:47.426Z,101871.34
2023-09-27T13:12:16.716Z,101867.75
2023-09-27T13:17:32.495Z,101856.13
2023-09-27T13:20:01.881Z,101841.69
2023-09-27T13:22:31.117Z,101839.06
2023-09-27T13:27:52.307Z,101833.91
2023-09-27T13:30:34.934Z,101830.00
2023-09-27T13:33:05.450Z,101825.00
2023-09-27T13:35:36.990Z,101823.28
2023-09-27T13:38:13.814Z,101823.16
2023-09-27T13:40:44.888Z,101817.63
2023-09-27T13:43:14.134Z,101820.44
2023-09-27T13:45:45.552Z,101817.06
2023-09-27T13:48:16.775Z,101820.03
2023-09-27T13:50:47.260Z,101822.06
2023-09-27T13:53:16.783Z,101817.78
2023-09-27T13:55:46.345Z,101813.47
2023-09-27T13:58:15.534Z,101823.66
2023-09-27T14:00:44.710Z,101818.44
2023-09-27T14:03:15.656Z,101822.13
2023-09-27T14:05:45.101Z,101821.25
2023-09-27T14:08:14.637Z,101816.59
2023-09-27T14:10:43.873Z,101813.88
2023-09-27T14:13:13.125Z,101807.47
2023-09-27T14:15:42.345Z,101811.25
2023-09-27T14:18:11.745Z,101807.69
2023-09-27T14:20:41.101Z,101805.72
2023-09-27T14:23:10.345Z,101795.84
2023-09-27T14:25:41.176Z,101797.78
2023-09-27T14:28:10.516Z,101790.75
2023-09-27T14:30:42.185Z,101791.81
2023-09-27T14:33:11.394Z,101784.66
2023-09-27T14:35:52.541Z,101781.94
2023-09-27T14:38:22.370Z,101777.38
2023-09-27T14:40:51.566Z,101774.56
2023-09-27T14:43:20.901Z,101768.19
2023-09-27T14:45:51.193Z,101763.81
2023-09-27T14:48:20.513Z,101765.88
2023-09-27T14:50:49.727Z,101754.38
2023-09-27T14:53:18.962Z,101756.44
2023-09-27T14:55:48.244Z,101762.16
2023-09-27T14:58:17.521Z,101749.78
2023-09-27T15:00:46.694Z,101750.78
2023-09-27T15:03:18.460Z,101759.88
2023-09-27T15:05:47.784Z,101750.00
2023-09-27T15:08:16.919Z,101746.50
2023-09-27T15:10:46.140Z,101739.44
2023-09-27T15:13:18.089Z,101738.72
2023-09-27T15:15:47.661Z,101738.81
2023-09-27T15:18:17.267Z,101737.19
2023-09-27T15:20:46.731Z,101731.66
2023-09-27T15:23:16.210Z,101723.91
2023-09-27T15:25:45.531Z,101724.16
2023-09-27T15:28:15.016Z,101726.19
2023-09-27T15:30:44.438Z,101722.81
2023-09-27T15:33:13.710Z,101729.44
2023-09-27T15:35:52.821Z,101724.31
2023-09-27T15:38:22.181Z,101719.06
2023-09-27T15:40:51.420Z,101727.31
2023-09-27T15:43:20.804Z,101718.50
2023-09-27T15:46:05.675Z,101727.63
2023-09-27T15:48:38.411Z,101723.25
2023-09-27T15:51:09.603Z,101709.06
2023-09-27T15:53:40.920Z,101710.13
2023-09-27T15:56:13.646Z,101705.78
2023-09-27T15:58:43.010Z,101708.69
2023-09-27T16:01:13.367Z,101706.22
2023-09-27T16:03:42.835Z,101700.88
2023-09-27T16:06:12.082Z,101707.38
2023-09-27T16:08:41.383Z,101692.28
2023-09-27T16:11:10.753Z,101704.09
2023-09-27T16:13:40.146Z,101693.38
2023-09-27T16:16:09.399Z,101690.84
2023-09-27T16:18:38.637Z,101685.63
2023-09-27T16:21:08.358Z,101697.53
2023-09-27T16:23:37.675Z,101692.34
2023-09-27T16:26:08.021Z,101691.56
2023-09-27T16:28:37.333Z,101687.31
2023-09-27T16:31:12.214Z,101682.13
2023-09-27T16:33:41.962Z,101674.19
2023-09-27T16:36:18.815Z,101670.72
2023-09-27T16:38:48.019Z,101673.50
2023-09-27T16:41:21.282Z,101676.31
2023-09-27T16:43:50.958Z,101654.66
2023-09-27T16:46:20.347Z,101649.25
2023-09-27T16:48:50.255Z,101663.75
2023-09-27T16:51:19.508Z,101672.84
2023-09-27T16:53:48.952Z,101669.38
2023-09-27T16:56:18.218Z,101670.44
2023-09-27T16:58:47.492Z,101666.28
2023-09-27T17:01:26.082Z,101665.69
2023-09-27T17:03:56.193Z,101663.19
2023-09-27T17:06:25.763Z,101658.09
2023-09-27T17:08:54.983Z,101650.25
2023-09-27T17:11:26.072Z,101642.31
2023-09-27T17:13:55.467Z,101639.16
2023-09-27T17:16:29.130Z,101640.22
2023-09-27T17:18:58.550Z,101632.50
2023-09-27T17:21:27.753Z,101646.22
2023-09-27T17:23:57.057Z,101634.72
2023-09-27T17:26:26.237Z,101650.28
2023-09-27T17:28:55.515Z,101646.03
2023-09-27T17:31:24.892Z,101639.06
2023-09-27T17:33:54.602Z,101633.00
2023-09-27T17:36:24.022Z,101631.34
2023-09-27T17:38:53.262Z,101636.94
2023-09-27T17:41:22.705Z,101647.00
2023-09-27T17:43:52.202Z,101639.09
2023-09-27T17:46:22.974Z,101641.97
2023-09-27T17:48:52.687Z,101637.63
2023-09-27T17:51:21.923Z,101633.28
2023-09-27T17:53:52.533Z,101624.50
2023-09-27T17:56:22.002Z,101615.59
2023-09-27T17:58:53.103Z,101609.41
2023-09-27T18:01:26.515Z,101605.94
2023-09-27T18:03:56.882Z,101604.38
2023-09-27T18:06:26.320Z,101605.44
2023-09-27T18:08:55.573Z,101599.34
2023-09-27T18:11:24.748Z,101604.97
2023-09-27T18:13:54.153Z,101595.28
2023-09-27T18:16:24.136Z,101589.19
2023-09-27T18:18:55.451Z,101590.25
2023-09-27T18:21:24.907Z,101584.19
2023-09-27T18:23:55.802Z,101574.50
2023-09-27T18:26:25.320Z,101569.09
2023-09-27T18:28:55.702Z,101565.72
2023-09-27T18:31:27.535Z,101575.88
2023-09-27T18:33:58.338Z,101586.84
2023-09-27T18:36:27.599Z,101589.63
2023-09-27T18:38:56.787Z,101595.91
2023-09-27T18:41:26.037Z,101596.09
2023-09-27T18:43:55.853Z,101601.72
2023-09-27T18:46:25.699Z,101599.97
2023-09-27T18:48:55.113Z,101594.56
2023-09-27T18:51:25.618Z,101593.78
2023-09-27T18:53:55.153Z,101593.00
2023-09-27T18:56:25.220Z,101591.34
2023-09-27T18:58:59.880Z,101595.91
2023-09-27T19:01:29.393Z,101576.22
2023-09-27T19:04:00.338Z,101580.75
2023-09-27T19:06:32.103Z,101587.19
2023-09-27T19:09:03.641Z,101583.63
2023-09-27T19:11:34.601Z,101578.31
2023-09-27T19:14:05.478Z,101566.63
2023-09-27T19:16:34.932Z,101556.78
2023-09-27T19:19:04.264Z,101562.19
2023-09-27T19:21:33.497Z,101557.75
2023-09-27T19:24:03.367Z,101559.56
2023-09-27T19:26:34.088Z,101564.09
2023-09-27T19:29:03.479Z,101565.97
2023-09-27T19:31:32.894Z,101565.19
2023-09-27T19:34:02.931Z,101554.38
2023-09-27T19:36:32.196Z,101561.63
2023-09-27T19:39:01.441Z,101553.59
2023-09-27T19:41:33.878Z,101547.41
2023-09-27T19:44:03.228Z,101544.72
2023-09-27T19:46:32.986Z,101548.38
2023-09-27T19:49:03.084Z,101544.91
2023-09-27T19:51:33.061Z,101533.34
2023-09-27T19:54:02.482Z,101529.78
2023-09-27T19:56:31.753Z,101519.06
2023-09-27T19:59:01.614Z,101514.53
2023-09-27T20:01:33.251Z,101518.28
2023-09-27T20:04:03.315Z,101510.25
2023-09-27T20:06:37.849Z,101514.00
2023-09-27T20:09:09.743Z,101513.31
2023-09-27T20:11:40.218Z,101498.06
2023-09-27T20:14:09.750Z,101496.50
2023-09-27T20:16:39.090Z,101502.00
2023-09-27T20:19:08.412Z,101490.41
2023-09-27T20:21:37.733Z,101486.00
2023-09-27T20:24:07.247Z,101478.97
2023-09-27T20:26:36.598Z,101483.47
2023-09-27T20:29:06.078Z,101479.91
2023-09-27T20:31:35.471Z,101470.06
2023-09-27T20:34:06.529Z,101452.16
2023-09-27T20:36:35.761Z,101437.69
2023-09-27T20:39:05.058Z,101435.94
2023-09-27T20:41:34.364Z,101436.81
2023-09-27T20:44:03.729Z,101444.81
2023-09-27T20:46:33.085Z,101443.97
2023-09-27T20:49:03.214Z,101446.56
2023-09-27T20:51:32.493Z,101442.03
2023-09-27T20:54:01.772Z,101428.34
2023-09-27T20:56:31.017Z,101416.56
2023-09-27T20:59:00.517Z,101410.31
2023-09-27T21:01:37.580Z,101392.97
2023-09-27T21:04:07.982Z,101411.88
2023-09-27T21:06:37.258Z,101397.31
2023-09-27T21:09:06.738Z,101405.41
2023-09-27T21:11:36.414Z,101420.75
2023-09-27T21:14:05.747Z,101421.53
2023-09-27T21:16:35.333Z,101426.06
2023-09-27T21:19:04.588Z,101424.22
2023-09-27T21:21:33.989Z,101423.34
2023-09-27T21:24:03.288Z,101425.84
2023-09-27T21:26:32.690Z,101429.53
2023-09-27T21:29:01.998Z,101435.91
2023-09-27T21:31:31.366Z,101426.84
2023-09-27T21:34:00.873Z,101426.84
2023-09-27T21:36:30.144Z,101409.63
2023-09-27T21:38:59.390Z,101410.63
2023-09-27T21:41:28.741Z,101403.38
2023-09-27T21:43:58.028Z,101406.00
2023-09-27T21:46:27.373Z,101403.31
2023-09-27T21:48:57.287Z,101399.56
2023-09-27T21:51:27.230Z,101388.75
2023-09-27T21:53:56.460Z,101375.25
2023-09-27T21:56:25.669Z,101370.72
2023-09-27T21:58:54.986Z,101351.84
2023-09-27T22:01:25.245Z,101349.13
2023-09-27T22:03:54.764Z,101342.78
2023-09-27T22:06:24.157Z,101357.91
2023-09-27T22:08:54.154Z,101374.22
2023-09-27T22:11:23.537Z,101388.59
2023-09-27T22:13:53.321Z,101406.63
2023-09-27T22:16:23.312Z,101434.56
2023-09-27T22:18:52.695Z,101440.94
2023-09-27T22:21:28.415Z,101440.06
2023-09-27T22:24:08.868Z,101440.94
2023-09-27T22:26:39.174Z,101439.09
2023-09-27T22:29:11.524Z,101427.44
2023-09-27T22:31:43.786Z,101423.97
2023-09-27T22:34:33.948Z,101415.84
2023-09-27T22:37:03.242Z,101406.88
2023-09-27T22:39:32.870Z,101414.13
2023-09-27T22:42:04.623Z,101413.34
2023-09-27T22:44:34.192Z,101404.38
2023-09-27T22:47:03.620Z,101400.88
2023-09-27T22:49:33.884Z,101398.09
2023-09-27T22:52:10.400Z,101393.75
2023-09-27T22:54:40.053Z,101393.66
2023-09-27T22:57:09.399Z,101389.22
2023-09-27T22:59:39.433Z,101384.78
2023-09-27T23:02:11.097Z,101384.00
2023-09-27T23:04:42.597Z,101388.63
2023-09-27T23:07:18.250Z,101384.19
2023-09-27T23:09:48.615Z,101381.47
2023-09-27T23:12:18.433Z,101373.38
2023-09-27T23:15:06.877Z,101366.25
2023-09-27T23:17:57.304Z,101372.63
2023-09-27T23:20:31.394Z,101385.25
2023-09-27T23:23:08.500Z,101397.03
2023-09-27T23:25:44.355Z,101402.50
2023-09-27T23:28:17.777Z,101399.03
2023-09-27T23:30:53.081Z,101393.72
2023-09-27T23:33:23.115Z,101398.16
2023-09-27T23:35:52.385Z,101407.22
2023-09-27T23:38:40.074Z,101400.84
2023-09-27T23:41:09.342Z,101394.59
2023-09-27T23:43:41.821Z,101400.94
2023-09-27T23:46:21.808Z,101387.63
2023-09-27T23:48:54.049Z,101403.94
2023-09-27T23:51:26.983Z,101413.88
2023-09-27T23:54:00.341Z,101405.00
2023-09-27T23:56:31.465Z,101418.66
2023-09-27T23:59:09.313Z,101417.00
